createdAt,value
2023-01-19T00:00:51.239Z,94.02
2023-01-19T00:03:19.415Z,94.04
2023-01-19T00:05:47.520Z,93.85
2023-01-19T00:08:18.829Z,93.65
2023-01-19T00:10:49.373Z,93.56
2023-01-19T00:13:18.950Z,93.39
2023-01-19T00:15:47.278Z,93.29
2023-01-19T00:18:15.503Z,93.28
2023-01-19T00:20:43.731Z,93.33
2023-01-19T00:23:11.820Z,93.30
2023-01-19T00:25:42.658Z,93.41
2023-01-19T00:28:11.641Z,93.57
2023-01-19T00:30:42.139Z,93.55
2023-01-19T00:33:10.909Z,93.34
2023-01-19T00:35:39.029Z,93.23
2023-01-19T00:38:07.252Z,93.37
2023-01-19T00:40:35.419Z,93.70
2023-01-19T00:43:04.254Z,93.58
2023-01-19T00:45:32.844Z,93.30
2023-01-19T00:48:02.413Z,93.11
2023-01-19T00:50:32.073Z,92.94
2023-01-19T00:53:02.355Z,92.95
2023-01-19T00:55:31.675Z,93.18
2023-01-19T00:57:59.800Z,93.37
2023-01-19T01:00:27.936Z,93.35
2023-01-19T01:02:56.469Z,93.33
2023-01-19T01:05:26.063Z,93.39
2023-01-19T01:07:54.222Z,93.41
2023-01-19T01:10:24.863Z,93.47
2023-01-19T01:12:57.049Z,93.43
2023-01-19T01:15:27.565Z,93.46
2023-01-19T01:17:55.764Z,93.35
2023-01-19T01:20:28.051Z,93.15
2023-01-19T01:22:57.951Z,93.39
2023-01-19T01:25:27.585Z,93.44
2023-01-19T01:27:56.419Z,93.49
2023-01-19T01:30:25.024Z,93.47
2023-01-19T01:32:53.146Z,93.47
2023-01-19T01:35:21.272Z,93.52
2023-01-19T01:37:50.797Z,93.59
2023-01-19T01:40:19.817Z,93.66
2023-01-19T01:42:48.356Z,93.55
2023-01-19T01:45:33.145Z,93.68
2023-01-19T01:48:07.567Z,93.29
2023-01-19T01:50:38.657Z,92.94
2023-01-19T01:53:12.550Z,93.08
2023-01-19T01:55:44.878Z,92.57
2023-01-19T01:58:15.019Z,91.95
2023-01-19T06:51:59.860Z,94.41
2023-01-19T06:54:28.067Z,94.29
2023-01-19T06:56:56.157Z,93.92
2023-01-19T06:59:25.947Z,93.81
2023-01-19T07:01:54.239Z,93.77
2023-01-19T07:04:22.487Z,93.38
2023-01-19T07:06:51.174Z,93.34
2023-01-19T07:09:21.155Z,93.46
2023-01-19T07:11:49.633Z,93.11
2023-01-19T07:14:17.802Z,93.29
2023-01-19T07:16:46.089Z,92.88
2023-01-19T07:19:15.425Z,93.09
2023-01-19T07:21:43.615Z,92.93
2023-01-19T07:24:11.768Z,93.28
2023-01-19T07:26:41.252Z,92.96
2023-01-19T07:29:09.627Z,93.28
2023-01-19T07:31:38.131Z,92.99
2023-01-19T07:34:07.030Z,93.04
2023-01-19T07:36:35.923Z,93.30
2023-01-19T07:39:04.080Z,92.94
2023-01-19T07:41:32.584Z,93.02
2023-01-19T07:44:02.050Z,92.57
2023-01-19T07:46:30.170Z,92.59
2023-01-19T07:48:58.283Z,93.11
2023-01-19T07:51:27.976Z,92.80
2023-01-19T07:53:56.129Z,92.44
2023-01-19T07:56:24.830Z,92.76
2023-01-19T07:58:53.038Z,92.62
2023-01-19T08:01:22.707Z,92.35
2023-01-19T08:03:51.474Z,92.41
2023-01-19T08:06:23.315Z,93.07
2023-01-19T08:08:51.499Z,92.39
2023-01-19T08:11:20.153Z,92.03
2023-01-19T08:13:48.344Z,92.63
2023-01-19T08:16:16.708Z,92.64
2023-01-19T08:18:46.236Z,92.63
2023-01-19T08:21:14.529Z,92.24
2023-01-19T08:23:42.688Z,92.41
2023-01-19T08:26:21.354Z,92.08
2023-01-19T08:28:49.532Z,92.42
2023-01-19T08:31:21.151Z,92.39
2023-01-19T08:33:51.683Z,92.17
2023-01-19T08:36:20.008Z,92.10
2023-01-19T08:38:48.182Z,92.47
2023-01-19T08:41:17.178Z,92.51
2023-01-19T08:43:45.815Z,92.68
2023-01-19T08:46:17.049Z,92.24
2023-01-19T08:48:45.520Z,92.86
2023-01-19T08:51:15.719Z,92.58
2023-01-19T08:53:43.939Z,93.15
2023-01-19T08:56:13.953Z,92.32
2023-01-19T08:58:43.051Z,92.50
2023-01-19T09:01:13.963Z,92.79
2023-01-19T09:03:42.164Z,92.22
2023-01-19T09:06:11.623Z,92.10
2023-01-19T09:08:41.160Z,91.94
2023-01-19T09:11:12.348Z,91.82
2023-01-19T09:13:41.405Z,92.23
2023-01-19T09:16:12.704Z,91.94
2023-01-19T09:18:42.966Z,92.07
2023-01-19T09:21:11.164Z,92.37
2023-01-19T09:23:40.741Z,91.80
2023-01-19T09:26:09.104Z,92.86
2023-01-19T09:28:39.001Z,92.64
2023-01-19T09:31:08.563Z,92.58
2023-01-19T09:33:37.105Z,91.94
2023-01-19T09:36:05.502Z,92.43
2023-01-19T09:38:34.187Z,92.92
2023-01-19T09:41:04.649Z,92.53
2023-01-19T09:43:38.797Z,92.50
2023-01-19T09:46:12.464Z,92.81
2023-01-19T09:48:49.147Z,92.65
2023-01-19T09:51:22.861Z,93.11
2023-01-19T09:53:58.710Z,92.84
2023-01-19T09:56:31.184Z,92.54
2023-01-19T09:59:00.520Z,93.02
2023-01-19T10:01:35.849Z,93.04
2023-01-19T10:04:19.342Z,93.22
2023-01-19T10:06:48.924Z,92.92
2023-01-19T10:09:25.999Z,92.98
2023-01-19T10:12:02.203Z,93.85
2023-01-19T10:14:46.721Z,93.65
2023-01-19T10:17:25.524Z,93.33
2023-01-19T10:19:56.543Z,93.68
2023-01-19T10:22:26.329Z,93.14
2023-01-19T10:24:56.815Z,93.15
2023-01-19T10:27:29.995Z,93.51
2023-01-19T10:29:59.125Z,93.54
2023-01-19T10:32:30.513Z,94.18
2023-01-19T10:35:01.085Z,93.20
2023-01-19T10:37:33.435Z,93.34
2023-01-19T10:40:20.020Z,93.49
2023-01-19T10:42:49.610Z,93.47
2023-01-19T10:45:18.917Z,93.25
2023-01-19T10:47:48.662Z,92.79
2023-01-19T10:50:35.703Z,93.06
2023-01-19T10:53:06.559Z,93.28
2023-01-19T10:55:38.151Z,92.98
2023-01-19T10:58:31.632Z,93.10
2023-01-19T11:01:14.556Z,92.93
2023-01-19T11:03:42.960Z,93.78
2023-01-19T11:06:29.297Z,93.04
2023-01-19T11:09:12.860Z,93.16
2023-01-19T11:11:46.576Z,92.92
2023-01-19T11:14:20.210Z,93.07
2023-01-19T11:16:51.049Z,93.33
2023-01-19T11:19:23.248Z,93.59
2023-01-19T11:21:51.625Z,93.18
2023-01-19T11:24:20.264Z,93.12
2023-01-19T11:26:51.297Z,93.29
2023-01-19T11:29:24.212Z,93.77
2023-01-19T11:31:53.389Z,92.97
2023-01-19T11:34:32.518Z,93.52
2023-01-19T11:37:02.307Z,93.19
2023-01-19T11:39:32.542Z,93.04
2023-01-19T11:42:03.459Z,93.20
2023-01-19T11:44:35.518Z,93.67
2023-01-19T11:47:07.288Z,92.81
2023-01-19T11:49:44.244Z,93.17
2023-01-19T11:52:23.285Z,93.54
2023-01-19T11:55:04.559Z,93.56
2023-01-19T11:57:32.819Z,93.28
2023-01-19T12:00:05.346Z,93.11
2023-01-19T12:02:43.763Z,93.09
2023-01-19T12:05:16.185Z,93.31
2023-01-19T12:07:46.681Z,92.97
2023-01-19T12:10:25.029Z,92.56
2023-01-19T12:12:54.685Z,92.59
2023-01-19T12:15:31.124Z,93.51
2023-01-19T12:18:02.208Z,93.56
2023-01-19T12:20:35.148Z,93.92
2023-01-19T12:23:15.197Z,93.00
2023-01-19T12:25:55.038Z,92.55
2023-01-19T12:28:29.877Z,93.49
2023-01-19T12:31:00.838Z,92.51
2023-01-19T12:33:36.000Z,93.42
2023-01-19T12:36:07.042Z,93.16
2023-01-19T12:38:40.094Z,94.05
2023-01-19T12:41:29.745Z,93.77
2023-01-19T12:44:25.463Z,94.11
2023-01-19T12:46:57.622Z,94.31
2023-01-19T12:49:32.997Z,94.01
2023-01-19T12:52:24.263Z,93.89
2023-01-19T12:54:58.227Z,93.64
2023-01-19T12:57:30.589Z,93.76
2023-01-19T13:00:02.870Z,93.94
2023-01-19T13:02:54.693Z,93.47
2023-01-19T13:05:51.069Z,93.66
2023-01-19T13:08:24.454Z,93.62
2023-01-19T13:11:14.515Z,93.02
2023-01-19T13:13:45.073Z,92.97
2023-01-19T13:16:59.028Z,93.36
2023-01-19T13:19:39.208Z,93.07
2023-01-19T13:22:44.375Z,92.59
2023-01-19T13:25:14.996Z,92.75
2023-01-19T13:27:43.370Z,92.47
2023-01-19T13:30:13.527Z,92.90
2023-01-19T13:32:43.392Z,93.19
2023-01-19T13:35:18.510Z,92.69
2023-01-19T13:37:47.354Z,92.17
2023-01-19T13:40:21.751Z,93.00
2023-01-19T13:42:52.420Z,93.17
2023-01-19T13:45:30.247Z,93.04
2023-01-19T13:48:00.817Z,92.81
2023-01-19T13:50:32.408Z,93.16
2023-01-19T13:53:01.518Z,93.54
2023-01-19T13:55:32.028Z,92.10
2023-01-19T13:58:00.330Z,93.42
2023-01-19T14:00:30.986Z,93.27
2023-01-19T14:03:14.503Z,92.60
2023-01-19T14:05:45.435Z,92.92
2023-01-19T14:08:15.815Z,93.31
2023-01-19T14:10:46.073Z,92.64
2023-01-19T14:13:17.013Z,92.65
2023-01-19T14:15:48.691Z,93.02
2023-01-19T14:18:30.184Z,93.27
2023-01-19T14:21:02.948Z,93.72
2023-01-19T14:23:43.881Z,93.74
2023-01-19T14:26:42.386Z,93.57
2023-01-19T14:29:35.308Z,92.55
2023-01-19T14:32:13.395Z,92.60
2023-01-19T14:34:43.894Z,93.34
2023-01-19T14:37:22.295Z,93.20
2023-01-19T14:39:52.261Z,92.36
2023-01-19T14:42:25.609Z,92.33
2023-01-19T14:44:55.367Z,92.27
2023-01-19T14:47:32.934Z,91.10
2023-01-19T14:50:07.590Z,91.90
2023-01-19T14:52:40.777Z,92.16
2023-01-19T14:55:20.671Z,92.28
2023-01-19T14:57:49.505Z,92.90
2023-01-19T15:00:21.354Z,93.14
2023-01-19T15:02:49.616Z,92.66
2023-01-19T15:05:18.207Z,92.19
2023-01-19T15:07:48.700Z,92.26
2023-01-19T15:10:21.839Z,92.37
2023-01-19T15:12:51.428Z,91.19
2023-01-19T15:15:25.937Z,91.15
2023-01-19T15:17:56.205Z,91.46
2023-01-19T15:20:24.917Z,91.92
2023-01-19T15:22:54.718Z,91.55
2023-01-19T15:25:26.245Z,92.19
2023-01-19T15:27:58.272Z,91.93
2023-01-19T15:30:30.238Z,92.34
2023-01-19T15:32:59.137Z,92.35
2023-01-19T15:35:27.663Z,91.46
2023-01-19T15:37:57.784Z,91.92
2023-01-19T15:40:25.984Z,91.70
2023-01-19T15:42:54.128Z,90.84
2023-01-19T15:45:40.618Z,90.93
2023-01-19T15:48:10.864Z,91.40
2023-01-19T15:50:41.880Z,91.43
2023-01-19T15:53:15.447Z,91.84
2023-01-19T15:55:43.927Z,91.12
2023-01-19T15:58:14.195Z,91.04
2023-01-19T16:00:43.016Z,91.21
2023-01-19T16:03:12.291Z,91.47
2023-01-19T16:05:43.870Z,91.69
2023-01-19T16:08:13.752Z,91.71
2023-01-19T16:10:42.915Z,91.88
2023-01-19T16:13:12.933Z,92.17
2023-01-19T16:15:42.588Z,91.84
2023-01-19T16:18:10.783Z,91.77
2023-01-19T16:20:38.944Z,92.29
2023-01-19T16:23:15.652Z,91.81
2023-01-19T16:25:45.682Z,91.56
2023-01-19T16:28:14.053Z,91.99
2023-01-19T16:30:42.311Z,92.25
2023-01-19T16:33:11.774Z,91.57
2023-01-19T16:35:40.501Z,92.24
2023-01-19T16:38:09.779Z,92.27
2023-01-19T16:40:39.352Z,92.20
2023-01-19T16:43:08.973Z,92.13
2023-01-19T16:46:00.624Z,91.94
2023-01-19T16:48:29.578Z,92.15
2023-01-19T16:51:03.333Z,92.07
2023-01-19T16:53:34.830Z,92.47
2023-01-19T16:56:06.988Z,92.53
2023-01-19T16:58:38.461Z,92.06
2023-01-19T17:01:13.159Z,92.56
2023-01-19T17:03:44.235Z,92.42
2023-01-19T17:06:14.889Z,92.50
2023-01-19T17:08:44.397Z,92.25
2023-01-19T17:11:19.891Z,92.59
2023-01-19T17:13:51.700Z,92.38
2023-01-19T17:16:20.335Z,92.59
2023-01-19T17:18:50.951Z,92.73
2023-01-19T17:21:22.573Z,92.61
2023-01-19T17:23:54.236Z,92.21
2023-01-19T17:26:26.884Z,92.27
2023-01-19T17:29:03.166Z,91.58
2023-01-19T17:31:33.172Z,91.60
2023-01-19T17:34:02.487Z,91.49
2023-01-19T17:36:33.030Z,90.91
2023-01-19T17:39:07.483Z,91.13
2023-01-19T17:41:38.745Z,91.34
2023-01-19T17:44:09.296Z,90.99
2023-01-19T17:46:39.910Z,91.07
2023-01-19T17:49:10.713Z,91.97
2023-01-19T17:51:40.702Z,91.81
2023-01-19T17:54:10.927Z,91.91
2023-01-19T17:56:41.817Z,91.81
2023-01-19T17:59:13.748Z,91.24
2023-01-19T18:01:45.023Z,91.36
2023-01-19T18:04:14.529Z,91.77
2023-01-19T18:06:53.286Z,91.52
2023-01-19T18:09:24.767Z,91.69
2023-01-19T18:11:54.483Z,91.74
2023-01-19T18:14:27.345Z,91.52
2023-01-19T18:16:57.154Z,91.61
2023-01-19T18:19:26.477Z,92.07
2023-01-19T18:21:57.259Z,90.76
2023-01-19T18:24:27.980Z,91.09
2023-01-19T18:26:58.465Z,90.69
2023-01-19T18:29:30.247Z,90.55
2023-01-19T18:32:05.410Z,91.04
2023-01-19T18:34:36.941Z,90.62
2023-01-19T18:37:06.776Z,90.55
2023-01-19T18:39:38.279Z,90.75
2023-01-19T18:42:08.929Z,89.73
2023-01-19T18:44:40.471Z,90.22
2023-01-19T18:47:11.942Z,90.29
2023-01-19T18:49:43.460Z,90.68
2023-01-19T18:52:20.192Z,91.27
2023-01-19T18:54:52.311Z,91.44
2023-01-19T18:57:23.283Z,91.05
2023-01-19T18:59:54.937Z,91.52
2023-01-19T19:02:26.768Z,90.92
2023-01-19T19:04:57.593Z,91.88
2023-01-19T19:07:29.883Z,91.20
2023-01-19T19:10:00.224Z,91.20
2023-01-19T19:12:30.357Z,91.72
2023-01-19T19:15:14.571Z,91.29
2023-01-19T19:17:45.528Z,91.42
2023-01-19T19:20:17.899Z,90.92
2023-01-19T19:22:49.716Z,91.11
2023-01-19T19:25:20.933Z,91.20
2023-01-19T19:27:53.836Z,91.58
2023-01-19T19:30:26.822Z,91.35
2023-01-19T19:32:59.912Z,91.33
2023-01-19T19:35:29.837Z,91.10
2023-01-19T19:37:59.666Z,90.90
2023-01-19T19:40:30.467Z,90.46
2023-01-19T19:43:00.415Z,90.59
2023-01-19T19:45:36.103Z,90.46
2023-01-19T19:48:07.336Z,90.53
2023-01-19T19:50:36.865Z,90.25
2023-01-19T19:53:07.514Z,91.03
2023-01-19T19:55:37.644Z,90.73
2023-01-19T19:58:15.778Z,90.21
2023-01-19T20:00:47.548Z,90.11
2023-01-19T20:03:16.602Z,90.75
2023-01-19T20:05:47.241Z,90.22
2023-01-19T20:08:17.952Z,89.99
2023-01-19T20:10:49.044Z,90.00
2023-01-19T20:13:25.643Z,90.53
2023-01-19T20:15:56.885Z,90.32
2023-01-19T20:18:26.475Z,90.49
2023-01-19T20:21:00.304Z,90.67
2023-01-19T20:23:32.585Z,90.82
2023-01-19T20:26:07.847Z,89.78
2023-01-19T20:28:38.972Z,90.39
2023-01-19T20:31:18.016Z,90.26
2023-01-19T20:33:49.304Z,89.78
2023-01-19T20:36:22.559Z,90.74
2023-01-19T20:38:55.708Z,89.90
2023-01-19T20:41:27.745Z,90.36
2023-01-19T20:43:58.210Z,89.92
2023-01-19T20:46:30.750Z,90.01
2023-01-19T20:49:01.482Z,90.02
2023-01-19T20:51:31.178Z,89.93
2023-01-19T20:54:01.611Z,90.18
2023-01-19T20:56:31.969Z,90.63
2023-01-19T20:59:04.699Z,90.73
2023-01-19T21:01:36.168Z,90.52
2023-01-19T21:04:06.214Z,90.70
2023-01-19T21:06:37.255Z,90.63
2023-01-19T21:09:07.225Z,90.59
2023-01-19T21:11:37.068Z,90.83
2023-01-19T21:14:06.545Z,90.66
2023-01-19T21:16:38.978Z,90.58
2023-01-19T21:19:08.174Z,90.59
2023-01-19T21:21:36.390Z,90.82
2023-01-19T21:24:05.773Z,90.62
2023-01-19T21:26:34.449Z,90.81
2023-01-19T21:29:06.192Z,90.56
2023-01-19T21:31:34.918Z,90.66
2023-01-19T21:34:04.914Z,90.54
2023-01-19T21:36:33.443Z,90.53
2023-01-19T21:39:02.230Z,90.70
2023-01-19T21:41:31.254Z,90.46
2023-01-19T21:44:01.809Z,90.79
2023-01-19T21:46:32.248Z,90.76
2023-01-19T21:49:02.106Z,90.55
2023-01-19T21:51:34.851Z,90.54
2023-01-19T21:54:04.173Z,90.67
2023-01-19T21:56:32.583Z,90.86
2023-01-19T21:59:02.403Z,90.42
2023-01-19T22:01:30.880Z,90.13
2023-01-19T22:03:59.727Z,90.02
2023-01-19T22:06:29.354Z,89.97
2023-01-19T22:09:00.725Z,90.02
2023-01-19T22:11:30.114Z,89.68
2023-01-19T22:13:59.696Z,90.06
2023-01-19T22:16:28.421Z,90.14
2023-01-19T22:18:59.531Z,89.79
2023-01-19T22:21:29.957Z,89.92
2023-01-19T22:24:01.176Z,90.39
2023-01-19T22:26:30.483Z,89.63
2023-01-19T22:29:00.385Z,90.72
2023-01-19T22:31:30.577Z,90.39
2023-01-19T22:33:59.636Z,90.73
2023-01-19T22:36:30.332Z,90.46
2023-01-19T22:39:01.726Z,91.15
2023-01-19T22:41:31.077Z,91.20
2023-01-19T22:44:01.835Z,91.29
2023-01-19T22:46:32.111Z,91.13
2023-01-19T22:49:01.160Z,90.78
2023-01-19T22:51:32.431Z,90.33
2023-01-19T22:54:02.290Z,90.44
2023-01-19T22:56:31.995Z,90.19
2023-01-19T22:59:00.692Z,90.13
2023-01-19T23:01:31.559Z,89.94
2023-01-19T23:04:00.241Z,90.20
2023-01-19T23:06:30.109Z,90.43
2023-01-19T23:08:59.630Z,90.35
2023-01-19T23:11:35.583Z,90.51
2023-01-19T23:14:04.896Z,90.63
2023-01-19T23:16:33.088Z,90.46
2023-01-19T23:19:01.506Z,90.38
2023-01-19T23:21:31.876Z,90.60
2023-01-19T23:24:02.174Z,90.55
2023-01-19T23:26:38.066Z,90.35
2023-01-19T23:29:07.229Z,90.22
2023-01-19T23:31:36.858Z,90.56
2023-01-19T23:34:07.070Z,90.80
2023-01-19T23:36:37.960Z,90.75
2023-01-19T23:39:09.935Z,90.51
2023-01-19T23:41:39.495Z,90.59
2023-01-19T23:44:07.693Z,90.61
2023-01-19T23:46:35.884Z,90.58
2023-01-19T23:49:04.346Z,91.04
2023-01-19T23:51:33.572Z,90.93
2023-01-19T23:54:01.866Z,90.60
2023-01-19T23:56:31.858Z,90.91
2023-01-19T23:59:03.979Z,90.96
